createdAt,value
2022-07-31T00:00:43.970Z,21.80
2022-07-31T00:03:12.176Z,21.70
2022-07-31T00:05:42.510Z,21.70
2022-07-31T00:08:12.172Z,21.60
2022-07-31T00:10:40.399Z,21.60
2022-07-31T00:13:08.509Z,21.60
2022-07-31T00:15:38.491Z,21.60
2022-07-31T00:18:06.647Z,21.60
2022-07-31T00:20:34.843Z,21.60
2022-07-31T00:23:02.928Z,21.60
2022-07-31T00:25:32.440Z,21.60
2022-07-31T00:28:00.460Z,21.60
2022-07-31T00:30:28.545Z,21.50
2022-07-31T00:32:56.795Z,21.60
2022-07-31T00:35:25.105Z,21.50
2022-07-31T00:38:02.216Z,21.50
2022-07-31T00:40:48.723Z,21.40
2022-07-31T00:43:18.372Z,21.40
2022-07-31T00:45:46.971Z,21.30
2022-07-31T00:48:20.251Z,21.30
2022-07-31T00:50:48.551Z,21.40
2022-07-31T00:53:16.574Z,21.30
2022-07-31T00:55:51.855Z,21.30
2022-07-31T00:58:21.918Z,21.20
2022-07-31T01:00:50.105Z,21.10
2022-07-31T01:03:18.961Z,21.10
2022-07-31T01:05:50.363Z,21.00
2022-07-31T01:08:18.592Z,21.00
2022-07-31T01:10:55.591Z,21.00
2022-07-31T01:13:32.725Z,20.90
2022-07-31T01:16:04.431Z,20.80
2022-07-31T01:18:36.093Z,20.70
2022-07-31T01:21:07.426Z,20.60
2022-07-31T01:24:13.437Z,20.50
2022-07-31T01:26:50.931Z,20.50
2022-07-31T01:29:28.172Z,20.40
2022-07-31T01:32:03.703Z,20.40
2022-07-31T01:34:37.341Z,20.30
2022-07-31T01:37:10.417Z,20.20
2022-07-31T01:39:41.195Z,20.20
2022-07-31T01:42:12.107Z,20.10
2022-07-31T01:44:45.124Z,20.10
2022-07-31T01:47:16.497Z,20.10
2022-07-31T01:49:46.143Z,20.10
2022-07-31T01:52:15.151Z,20.00
2022-07-31T01:54:44.882Z,20.00
2022-07-31T01:57:17.239Z,20.10
2022-07-31T01:59:50.061Z,20.20
2022-07-31T02:02:23.877Z,20.30
2022-07-31T02:04:52.530Z,20.30
2022-07-31T02:07:21.627Z,20.30
2022-07-31T02:09:52.470Z,20.20
2022-07-31T02:12:32.185Z,20.10
2022-07-31T02:15:05.448Z,20.00
2022-07-31T02:17:34.771Z,20.00
2022-07-31T02:20:05.637Z,19.90
2022-07-31T02:38:21.670Z,20.00
2022-07-31T02:40:52.191Z,20.00
2022-07-31T02:43:21.610Z,20.10
2022-07-31T02:45:49.926Z,20.00
2022-07-31T02:48:18.402Z,20.00
2022-07-31T02:50:46.832Z,20.00
2022-07-31T02:53:16.660Z,20.00
2022-07-31T02:55:45.371Z,19.90
2022-07-31T02:58:14.287Z,19.90
2022-07-31T03:06:12.993Z,19.80
2022-07-31T03:12:47.116Z,19.80
2022-07-31T03:15:16.811Z,19.60
2022-07-31T03:17:46.793Z,19.60
2022-07-31T03:20:16.376Z,19.60
2022-07-31T03:22:45.431Z,19.60
2022-07-31T03:25:21.468Z,19.60
2022-07-31T03:27:52.509Z,19.50
2022-07-31T03:30:25.986Z,19.50
2022-07-31T03:32:54.339Z,19.50
2022-07-31T03:35:22.650Z,19.50
2022-07-31T03:37:50.683Z,19.50
2022-07-31T03:40:18.806Z,19.50
2022-07-31T03:42:48.700Z,19.50
2022-07-31T03:45:20.465Z,19.40
2022-07-31T03:47:48.650Z,19.40
2022-07-31T03:51:20.958Z,19.40
2022-07-31T03:53:50.007Z,19.40
2022-07-31T03:56:20.068Z,19.50
2022-07-31T03:58:52.250Z,19.50
2022-07-31T04:01:22.967Z,19.60
2022-07-31T04:03:59.164Z,19.70
2022-07-31T04:06:27.299Z,19.70
2022-07-31T04:08:55.362Z,19.60
2022-07-31T04:11:23.420Z,19.60
2022-07-31T04:13:51.501Z,19.60
2022-07-31T04:16:20.908Z,19.60
2022-07-31T04:26:26.249Z,19.60
2022-07-31T04:28:54.625Z,19.70
2022-07-31T04:31:24.079Z,19.70
2022-07-31T04:33:56.586Z,19.60
2022-07-31T04:36:29.933Z,19.70
2022-07-31T04:38:59.125Z,19.70
2022-07-31T04:41:27.604Z,19.80
2022-07-31T04:43:57.764Z,19.70
2022-07-31T04:46:27.883Z,19.80
2022-07-31T04:48:55.974Z,19.80
2022-07-31T04:51:25.503Z,19.80
2022-07-31T04:53:53.775Z,19.90
2022-07-31T04:56:37.642Z,19.90
2022-07-31T04:59:07.867Z,19.90
2022-07-31T05:01:38.110Z,19.90
2022-07-31T05:04:07.335Z,20.00
2022-07-31T05:06:36.744Z,20.10
2022-07-31T05:09:09.336Z,20.20
2022-07-31T05:11:38.887Z,20.30
2022-07-31T05:14:09.223Z,20.30
2022-07-31T05:16:39.034Z,20.30
2022-07-31T05:19:13.673Z,20.20
2022-07-31T05:21:47.052Z,20.20
2022-07-31T05:24:33.352Z,20.20
2022-07-31T05:27:02.526Z,20.30
2022-07-31T05:29:31.125Z,20.40
2022-07-31T05:32:01.366Z,20.40
2022-07-31T05:34:30.726Z,20.40
2022-07-31T05:37:01.290Z,20.40
2022-07-31T05:39:30.209Z,20.50
2022-07-31T05:41:58.496Z,20.50
2022-07-31T05:44:26.810Z,20.40
2022-07-31T05:49:26.668Z,20.30
2022-07-31T05:51:55.145Z,20.20
2022-07-31T05:54:23.717Z,20.30
2022-07-31T05:56:51.726Z,20.10
2022-07-31T05:59:20.012Z,20.00
2022-07-31T06:01:48.105Z,20.00
2022-07-31T06:04:16.217Z,19.90
2022-07-31T06:06:45.655Z,20.00
2022-07-31T06:09:13.774Z,19.90
2022-07-31T06:11:41.849Z,19.90
2022-07-31T06:14:10.539Z,19.90
2022-07-31T06:16:38.550Z,19.90
2022-07-31T06:19:06.668Z,20.00
2022-07-31T06:21:34.718Z,19.90
2022-07-31T06:24:04.146Z,19.90
2022-07-31T06:26:33.412Z,19.80
2022-07-31T06:29:01.510Z,19.80
2022-07-31T06:31:29.555Z,19.80
2022-07-31T06:33:57.640Z,19.80
2022-07-31T06:36:25.737Z,19.80
2022-07-31T06:38:54.405Z,19.70
2022-07-31T06:41:41.250Z,19.70
2022-07-31T06:44:09.354Z,19.80
2022-07-31T06:46:37.490Z,19.80
2022-07-31T06:49:08.887Z,19.90
2022-07-31T06:51:37.515Z,20.00
2022-07-31T06:54:08.640Z,20.10
2022-07-31T06:56:39.344Z,20.20
2022-07-31T06:59:08.411Z,20.20
2022-07-31T07:01:36.539Z,20.20
2022-07-31T07:04:04.773Z,20.20
2022-07-31T07:06:32.804Z,20.30
2022-07-31T07:09:00.870Z,20.40
2022-07-31T07:11:28.933Z,20.40
2022-07-31T07:13:58.353Z,20.40
2022-07-31T07:16:26.457Z,20.40
2022-07-31T07:18:56.072Z,20.40
2022-07-31T07:21:24.261Z,20.50
2022-07-31T07:23:52.268Z,20.50
2022-07-31T07:26:20.311Z,20.50
2022-07-31T07:28:48.375Z,20.60
2022-07-31T07:31:17.784Z,20.70
2022-07-31T07:33:45.839Z,20.70
2022-07-31T07:36:24.041Z,20.80
2022-07-31T07:38:55.043Z,20.80
2022-07-31T07:41:24.046Z,20.80
2022-07-31T07:43:52.498Z,20.70
2022-07-31T07:46:22.900Z,20.70
2022-07-31T07:48:51.885Z,20.70
2022-07-31T07:51:20.798Z,20.80
2022-07-31T07:53:49.173Z,20.90
2022-07-31T07:56:17.549Z,21.00
2022-07-31T07:58:45.969Z,21.20
2022-07-31T08:01:14.421Z,21.30
2022-07-31T08:03:48.720Z,21.40
2022-07-31T08:06:20.383Z,21.50
2022-07-31T08:08:48.534Z,21.60
2022-07-31T08:11:17.466Z,21.70
2022-07-31T08:13:50.606Z,21.80
2022-07-31T08:16:19.588Z,22.00
2022-07-31T08:18:49.485Z,22.30
2022-07-31T08:21:17.698Z,22.50
2022-07-31T08:23:45.803Z,22.50
2022-07-31T08:26:14.189Z,22.50
2022-07-31T08:28:49.853Z,22.40
2022-07-31T08:31:18.280Z,22.40
2022-07-31T08:33:46.500Z,22.40
2022-07-31T08:36:15.884Z,22.70
2022-07-31T08:38:44.134Z,23.20
2022-07-31T08:41:13.994Z,23.70
2022-07-31T08:44:00.010Z,24.30
2022-07-31T08:46:30.411Z,24.70
2022-07-31T08:48:59.086Z,24.70
2022-07-31T08:51:29.803Z,24.80
2022-07-31T08:53:58.609Z,24.60
2022-07-31T08:56:26.930Z,24.40
2022-07-31T08:58:57.084Z,24.30
2022-07-31T09:01:25.511Z,24.60
2022-07-31T09:03:54.306Z,24.70
2022-07-31T09:06:22.430Z,24.80
2022-07-31T09:08:51.821Z,24.80
2022-07-31T09:11:20.151Z,24.60
2022-07-31T09:14:02.772Z,24.90
2022-07-31T09:16:32.031Z,25.30
2022-07-31T09:19:01.718Z,25.60
2022-07-31T09:21:40.584Z,25.60
2022-07-31T09:24:11.216Z,25.40
2022-07-31T09:26:40.923Z,25.20
2022-07-31T09:29:11.940Z,25.10
2022-07-31T09:31:40.478Z,25.10
2022-07-31T09:34:08.677Z,24.90
2022-07-31T09:36:36.895Z,24.90
2022-07-31T09:39:26.864Z,24.90
2022-07-31T09:42:01.987Z,25.10
2022-07-31T09:44:47.447Z,25.00
2022-07-31T09:47:23.105Z,24.80
2022-07-31T09:49:55.986Z,24.60
2022-07-31T09:52:24.338Z,24.40
2022-07-31T09:55:15.816Z,24.10
2022-07-31T09:57:53.165Z,23.90
2022-07-31T10:00:21.526Z,23.70
2022-07-31T10:02:49.733Z,23.80
2022-07-31T10:05:18.630Z,23.70
2022-07-31T10:07:48.640Z,23.40
2022-07-31T10:10:18.860Z,23.40
2022-07-31T10:12:51.033Z,23.40
2022-07-31T10:15:20.974Z,23.50
2022-07-31T10:17:52.604Z,23.50
2022-07-31T10:20:24.671Z,23.50
2022-07-31T10:22:57.161Z,23.60
2022-07-31T10:25:29.584Z,23.70
2022-07-31T10:27:58.383Z,23.70
2022-07-31T10:30:28.477Z,23.90
2022-07-31T10:32:58.607Z,23.80
2022-07-31T10:35:27.458Z,23.80
2022-07-31T10:38:02.676Z,23.70
2022-07-31T10:41:20.406Z,23.70
2022-07-31T10:44:00.904Z,23.70
2022-07-31T10:46:29.972Z,23.80
2022-07-31T10:48:58.818Z,24.00
2022-07-31T10:51:27.665Z,24.20
2022-07-31T10:53:57.330Z,24.60
2022-07-31T10:56:26.725Z,24.90
2022-07-31T10:58:58.090Z,24.70
2022-07-31T11:01:26.646Z,24.60
2022-07-31T11:04:00.220Z,24.90
2022-07-31T11:06:39.205Z,25.00
2022-07-31T11:09:07.440Z,25.00
2022-07-31T11:11:38.024Z,25.10
2022-07-31T11:14:07.459Z,25.10
2022-07-31T11:16:35.549Z,24.90
2022-07-31T11:19:06.229Z,24.80
2022-07-31T11:21:38.933Z,24.60
2022-07-31T11:24:14.840Z,24.50
2022-07-31T11:26:52.785Z,24.60
2022-07-31T11:29:59.847Z,24.80
2022-07-31T11:32:25.078Z,24.90
2022-07-31T11:34:56.616Z,25.20
2022-07-31T11:37:26.145Z,25.20
2022-07-31T11:40:01.872Z,25.10
2022-07-31T11:42:34.451Z,25.00
2022-07-31T11:45:08.428Z,24.80
2022-07-31T11:48:12.124Z,24.70
2022-07-31T11:50:30.786Z,24.90
2022-07-31T11:53:04.676Z,25.10
2022-07-31T11:55:33.022Z,25.20
2022-07-31T11:58:01.114Z,25.20
2022-07-31T12:00:30.578Z,25.30
2022-07-31T12:02:59.195Z,25.10
2022-07-31T12:05:38.587Z,25.20
2022-07-31T12:08:09.327Z,25.20
2022-07-31T12:10:38.208Z,25.20
2022-07-31T12:13:06.266Z,25.30
2022-07-31T12:15:36.155Z,25.50
2022-07-31T12:18:05.761Z,25.80
2022-07-31T12:20:36.499Z,26.60
2022-07-31T12:23:06.667Z,27.00
2022-07-31T12:25:41.980Z,27.00
2022-07-31T12:28:11.072Z,26.80
2022-07-31T12:30:40.557Z,26.40
2022-07-31T12:33:09.586Z,26.20
2022-07-31T12:35:55.771Z,25.90
2022-07-31T12:38:45.076Z,26.10
2022-07-31T12:41:14.455Z,26.10
2022-07-31T12:43:50.861Z,26.10
2022-07-31T12:46:23.109Z,25.70
2022-07-31T12:48:52.082Z,25.50
2022-07-31T12:51:44.856Z,25.50
2022-07-31T12:54:10.096Z,25.80
2022-07-31T12:56:38.994Z,26.20
2022-07-31T12:59:08.762Z,26.60
2022-07-31T13:01:38.632Z,26.70
2022-07-31T13:04:08.084Z,26.70
2022-07-31T13:06:48.504Z,26.80
2022-07-31T13:09:16.724Z,26.40
2022-07-31T13:11:46.297Z,26.20
2022-07-31T13:14:16.434Z,26.30
2022-07-31T13:16:46.384Z,26.10
2022-07-31T13:19:14.926Z,26.10
2022-07-31T13:21:49.504Z,26.10
2022-07-31T13:24:19.222Z,26.00
2022-07-31T13:26:47.891Z,26.10
2022-07-31T13:29:16.651Z,26.00
2022-07-31T13:31:46.679Z,26.10
2022-07-31T13:34:15.004Z,26.10
2022-07-31T13:36:43.083Z,26.20
2022-07-31T13:39:11.762Z,26.20
2022-07-31T13:41:40.199Z,26.20
2022-07-31T13:44:09.513Z,26.30
2022-07-31T13:46:38.078Z,26.20
2022-07-31T13:49:10.397Z,26.10
2022-07-31T13:51:39.642Z,25.90
2022-07-31T13:54:08.579Z,25.90
2022-07-31T13:56:43.010Z,26.10
2022-07-31T13:59:12.891Z,26.60
2022-07-31T14:02:04.651Z,26.60
2022-07-31T14:04:32.754Z,26.60
2022-07-31T14:07:07.624Z,26.40
2022-07-31T14:09:36.071Z,26.20
2022-07-31T14:12:05.585Z,26.00
2022-07-31T14:14:34.443Z,25.70
2022-07-31T14:17:02.490Z,25.70
2022-07-31T14:19:42.019Z,26.00
2022-07-31T14:22:13.359Z,25.90
2022-07-31T14:24:49.380Z,26.00
2022-07-31T14:27:20.603Z,26.00
2022-07-31T14:29:48.765Z,26.00
2022-07-31T14:32:16.988Z,25.90
2022-07-31T14:34:46.421Z,25.60
2022-07-31T14:37:14.452Z,25.40
2022-07-31T14:39:43.148Z,25.20
2022-07-31T14:42:12.414Z,25.10
2022-07-31T14:44:42.318Z,25.00
2022-07-31T14:47:11.640Z,25.00
2022-07-31T14:50:07.613Z,24.90
2022-07-31T14:52:29.740Z,24.90
2022-07-31T14:55:00.417Z,24.50
2022-07-31T14:57:29.981Z,24.20
2022-07-31T14:59:58.073Z,24.30
2022-07-31T15:02:26.363Z,24.40
2022-07-31T15:04:54.870Z,24.60
2022-07-31T15:07:45.938Z,24.70
2022-07-31T15:10:13.108Z,24.70
2022-07-31T15:12:41.164Z,24.30
2022-07-31T15:15:10.344Z,24.20
2022-07-31T15:17:38.571Z,24.10
2022-07-31T15:20:07.541Z,24.00
2022-07-31T15:22:35.803Z,23.90
2022-07-31T15:25:03.840Z,23.90
2022-07-31T15:27:33.277Z,23.80
2022-07-31T15:30:07.049Z,23.90
2022-07-31T15:32:36.630Z,23.70
2022-07-31T15:35:06.019Z,23.40
2022-07-31T15:37:35.625Z,23.20
2022-07-31T15:40:05.774Z,22.80
2022-07-31T15:42:38.377Z,22.60
2022-07-31T15:45:07.944Z,22.40
2022-07-31T15:47:36.127Z,22.30
2022-07-31T15:50:04.422Z,22.20
2022-07-31T15:52:32.490Z,22.20
2022-07-31T15:55:00.800Z,22.20
2022-07-31T15:57:29.151Z,22.20
2022-07-31T15:59:58.568Z,22.20
2022-07-31T16:02:27.050Z,22.10
2022-07-31T16:04:57.537Z,22.10
2022-07-31T16:08:30.918Z,22.20
2022-07-31T16:10:18.205Z,22.30
2022-07-31T16:12:46.863Z,22.40
2022-07-31T16:15:17.677Z,22.30
2022-07-31T16:17:46.522Z,22.20
2022-07-31T16:20:25.253Z,22.00
2022-07-31T16:22:56.937Z,22.00
2022-07-31T16:25:27.281Z,22.10
2022-07-31T16:27:55.670Z,22.20
2022-07-31T16:30:27.308Z,22.30
2022-07-31T16:32:55.579Z,22.30
2022-07-31T16:35:26.111Z,22.20
2022-07-31T16:37:54.378Z,22.10
2022-07-31T16:40:30.579Z,21.80
2022-07-31T16:43:01.927Z,21.60
2022-07-31T16:45:31.771Z,21.50
2022-07-31T16:48:00.105Z,21.40
2022-07-31T16:50:28.330Z,21.30
2022-07-31T16:52:56.445Z,21.30
2022-07-31T16:55:51.570Z,21.30
2022-07-31T16:58:14.015Z,21.40
2022-07-31T17:00:43.519Z,21.30
2022-07-31T17:03:58.968Z,21.20
2022-07-31T17:05:59.643Z,21.20
2022-07-31T17:08:28.908Z,21.30
2022-07-31T17:10:56.963Z,21.50
2022-07-31T17:13:25.052Z,21.50
2022-07-31T17:15:54.502Z,21.60
2022-07-31T17:18:25.346Z,21.50
2022-07-31T17:20:55.796Z,21.60
2022-07-31T17:23:43.365Z,21.70
2022-07-31T17:26:21.213Z,21.60
2022-07-31T17:28:49.910Z,21.70
2022-07-31T17:31:19.618Z,21.80
2022-07-31T17:33:59.530Z,21.90
2022-07-31T17:36:30.085Z,21.90
2022-07-31T17:38:58.569Z,21.90
2022-07-31T17:41:26.805Z,21.90
2022-07-31T17:43:55.127Z,21.90
2022-07-31T17:46:34.962Z,22.00
2022-07-31T17:49:06.084Z,21.90
2022-07-31T17:59:06.444Z,21.90
2022-07-31T18:01:36.253Z,22.00
2022-07-31T18:04:04.500Z,21.80
2022-07-31T18:06:32.777Z,21.80
2022-07-31T18:09:00.938Z,21.70
2022-07-31T18:11:29.112Z,21.70
2022-07-31T18:14:03.022Z,21.60
2022-07-31T18:16:31.421Z,21.60
2022-07-31T18:27:34.148Z,21.60
2022-07-31T18:30:05.034Z,21.80
2022-07-31T18:32:33.280Z,21.70
2022-07-31T18:35:02.407Z,21.60
2022-07-31T18:37:32.553Z,21.70
2022-07-31T18:40:00.706Z,21.70
2022-07-31T18:42:29.827Z,21.70
2022-07-31T18:44:58.353Z,21.70
2022-07-31T18:47:27.800Z,21.60
2022-07-31T18:50:59.214Z,21.60
2022-07-31T18:52:43.955Z,21.60
2022-07-31T18:55:12.130Z,21.50
2022-07-31T18:57:40.274Z,21.40
2022-07-31T19:00:10.173Z,21.30
2022-07-31T19:02:39.629Z,21.30
2022-07-31T19:05:08.533Z,21.30
2022-07-31T19:07:43.001Z,21.30
2022-07-31T19:10:11.061Z,21.30
2022-07-31T19:12:57.846Z,21.30
2022-07-31T19:15:25.961Z,21.30
2022-07-31T19:17:58.388Z,21.10
2022-07-31T19:20:44.548Z,21.00
2022-07-31T19:23:16.533Z,20.80
2022-07-31T19:25:59.466Z,20.70
2022-07-31T19:28:32.600Z,20.50
2022-07-31T19:31:01.148Z,20.50
2022-07-31T19:33:30.655Z,20.50
2022-07-31T19:36:02.253Z,20.50
2022-07-31T19:38:32.401Z,20.50
2022-07-31T19:41:00.933Z,20.50
2022-07-31T19:43:29.176Z,20.40
2022-07-31T19:45:58.701Z,20.40
2022-07-31T19:48:40.919Z,20.40
2022-07-31T19:51:09.365Z,20.40
2022-07-31T19:53:37.413Z,20.50
2022-07-31T19:56:06.518Z,20.50
2022-07-31T19:58:35.452Z,20.50
2022-07-31T20:01:04.283Z,20.50
2022-07-31T20:03:32.750Z,20.50
2022-07-31T20:06:02.735Z,20.50
2022-07-31T20:08:33.252Z,20.40
2022-07-31T20:11:03.659Z,20.50
2022-07-31T20:13:33.166Z,20.50
2022-07-31T20:16:01.588Z,20.50
2022-07-31T20:18:30.511Z,20.50
2022-07-31T20:21:00.412Z,20.50
2022-07-31T20:23:31.017Z,20.50
2022-07-31T20:25:59.117Z,20.50
2022-07-31T20:28:27.705Z,20.50
2022-07-31T20:30:55.917Z,20.50
2022-07-31T20:33:24.041Z,20.50
2022-07-31T20:35:52.237Z,20.50
2022-07-31T20:38:21.158Z,20.50
2022-07-31T20:40:53.353Z,20.50
2022-07-31T20:43:23.487Z,20.50
2022-07-31T20:45:51.704Z,20.60
2022-07-31T20:48:21.504Z,20.40
2022-07-31T20:50:49.609Z,20.50
2022-07-31T20:53:17.953Z,20.40
2022-07-31T20:55:47.483Z,20.40
2022-07-31T20:58:16.978Z,20.40
2022-07-31T21:00:45.535Z,20.40
2022-07-31T21:03:13.953Z,20.40
2022-07-31T21:05:42.193Z,20.40
2022-07-31T21:08:10.645Z,20.30
2022-07-31T21:10:38.999Z,20.30
2022-07-31T21:13:07.088Z,20.20
2022-07-31T21:15:41.808Z,20.20
2022-07-31T21:18:12.805Z,20.30
2022-07-31T21:20:51.263Z,20.20
2022-07-31T21:23:22.016Z,20.30
2022-07-31T21:25:50.589Z,20.30
2022-07-31T21:28:19.121Z,20.20
2022-07-31T21:30:49.017Z,20.20
2022-07-31T21:33:18.244Z,20.20
2022-07-31T21:35:47.114Z,20.20
2022-07-31T21:38:16.221Z,20.20
2022-07-31T21:40:44.857Z,20.20
2022-07-31T21:43:16.598Z,20.30
2022-07-31T21:45:55.592Z,20.30
2022-07-31T21:48:27.416Z,20.30
2022-07-31T21:50:56.395Z,20.30
2022-07-31T21:53:25.451Z,20.30
2022-07-31T21:55:53.541Z,20.30
2022-07-31T21:58:21.701Z,20.20
2022-07-31T22:00:51.165Z,20.30
2022-07-31T22:03:19.214Z,20.30
2022-07-31T22:06:04.762Z,20.30
2022-07-31T22:08:32.860Z,20.30
2022-07-31T22:11:01.506Z,20.30
2022-07-31T22:13:29.520Z,20.30
2022-07-31T22:16:01.020Z,20.20
2022-07-31T22:18:30.668Z,20.20
2022-07-31T22:20:58.969Z,20.20
2022-07-31T22:23:28.545Z,20.20
2022-07-31T22:25:56.877Z,20.20
2022-07-31T22:28:26.871Z,20.20
2022-07-31T22:30:55.614Z,20.20
2022-07-31T22:33:25.813Z,20.20
2022-07-31T22:35:59.942Z,20.10
2022-07-31T22:38:30.651Z,20.10
2022-07-31T22:40:59.066Z,20.10
2022-07-31T22:44:12.196Z,20.00
2022-07-31T22:46:15.928Z,20.00
2022-07-31T22:48:46.061Z,19.90
2022-07-31T22:51:15.371Z,19.90
2022-07-31T22:53:44.239Z,19.90
2022-07-31T22:56:12.355Z,19.90
2022-07-31T22:58:40.580Z,19.90
2022-07-31T23:01:08.698Z,19.80
2022-07-31T23:03:36.755Z,19.80
2022-07-31T23:06:31.876Z,19.80
2022-07-31T23:08:55.294Z,19.80
2022-07-31T23:11:24.537Z,19.80
2022-07-31T23:13:52.632Z,19.80
2022-07-31T23:16:21.396Z,19.80
2022-07-31T23:18:49.525Z,19.70
2022-07-31T23:21:19.609Z,19.80
2022-07-31T23:23:48.931Z,19.80
2022-07-31T23:26:18.530Z,19.80
2022-07-31T23:28:46.598Z,19.80
2022-07-31T23:31:14.655Z,19.80
2022-07-31T23:33:42.994Z,19.80
2022-07-31T23:36:11.169Z,19.80
2022-07-31T23:38:40.777Z,19.80
2022-07-31T23:41:08.897Z,19.80
2022-07-31T23:43:36.053Z,19.80
2022-07-31T23:46:04.506Z,19.80
2022-07-31T23:48:33.038Z,19.80
2022-07-31T23:51:01.188Z,19.70
2022-07-31T23:53:29.270Z,19.70
2022-07-31T23:55:58.693Z,19.60
2022-07-31T23:58:26.683Z,19.60
